createdAt,value
2022-08-27T00:02:56.025Z,99335.94
2022-08-27T00:05:58.230Z,99327.41
2022-08-27T00:09:00.343Z,99326.31
2022-08-27T00:12:03.036Z,99324.16
2022-08-27T00:15:06.763Z,99324.41
2022-08-27T00:18:09.007Z,99325.19
2022-08-27T00:21:11.669Z,99319.63
2022-08-27T00:24:13.950Z,99317.25
2022-08-27T00:27:16.271Z,99317.53
2022-08-27T00:30:20.663Z,99318.88
2022-08-27T00:33:23.259Z,99319.94
2022-08-27T00:36:25.588Z,99321.03
2022-08-27T00:39:27.735Z,99324.22
2022-08-27T00:42:31.051Z,99324.22
2022-08-27T00:45:37.830Z,99322.34
2022-08-27T00:48:39.981Z,99328.19
2022-08-27T00:51:42.185Z,99317.44
2022-08-27T00:54:44.522Z,99320.84
2022-08-27T00:57:51.390Z,99319.09
2022-08-27T01:00:53.839Z,99319.06
2022-08-27T01:03:58.951Z,99314.50
2022-08-27T01:07:01.235Z,99306.78
2022-08-27T01:10:05.407Z,99310.25
2022-08-27T01:13:09.584Z,99305.06
2022-08-27T01:16:11.763Z,99304.28
2022-08-27T01:19:50.352Z,99304.56
2022-08-27T01:23:46.361Z,99307.72
2022-08-27T01:26:48.546Z,99307.84
2022-08-27T01:29:50.768Z,99304.69
2022-08-27T01:32:52.966Z,99301.28
2022-08-27T01:35:55.098Z,99306.63
2022-08-27T01:38:57.539Z,99307.06
2022-08-27T01:42:19.922Z,99304.69
2022-08-27T01:45:28.655Z,99306.34
2022-08-27T01:48:30.738Z,99297.38
2022-08-27T01:51:32.822Z,99302.69
2022-08-27T01:54:35.127Z,99307.81
2022-08-27T01:57:37.479Z,99313.50
2022-08-27T02:00:42.112Z,99310.88
2022-08-27T02:03:44.674Z,99312.28
2022-08-27T02:06:47.066Z,99310.91
2022-08-27T02:09:49.128Z,99305.09
2022-08-27T02:12:52.660Z,99307.00
2022-08-27T02:15:55.646Z,99304.44
2022-08-27T02:18:58.103Z,99308.63
2022-08-27T02:22:01.380Z,99303.38
2022-08-27T02:25:04.028Z,99300.00
2022-08-27T02:28:06.424Z,99297.16
2022-08-27T02:31:08.811Z,99298.56
2022-08-27T02:34:10.944Z,99296.84
2022-08-27T02:37:13.076Z,99298.06
2022-08-27T02:40:17.658Z,99301.66
2022-08-27T02:43:25.265Z,99304.84
2022-08-27T02:46:27.775Z,99303.34
2022-08-27T02:49:30.415Z,99295.03
2022-08-27T02:52:32.491Z,99300.19
2022-08-27T02:55:34.608Z,99295.84
2022-08-27T02:58:39.431Z,99296.13
2022-08-27T03:01:41.598Z,99301.97
2022-08-27T03:04:44.479Z,99296.91
2022-08-27T03:07:46.588Z,99302.16
2022-08-27T03:10:49.015Z,99295.09
2022-08-27T03:13:51.537Z,99302.34
2022-08-27T03:16:53.680Z,99304.66
2022-08-27T03:19:55.746Z,99299.44
2022-08-27T03:22:57.830Z,99297.13
2022-08-27T03:26:02.033Z,99298.41
2022-08-27T03:29:04.142Z,99299.25
2022-08-27T03:32:07.097Z,99302.41
2022-08-27T03:35:09.708Z,99305.06
2022-08-27T03:38:11.879Z,99297.53
2022-08-27T03:41:14.299Z,99300.72
2022-08-27T03:44:21.757Z,99301.97
2022-08-27T03:47:24.167Z,99302.97
2022-08-27T03:50:26.240Z,99303.75
2022-08-27T03:53:28.460Z,99311.09
2022-08-27T03:56:30.547Z,99310.13
2022-08-27T03:59:33.347Z,99310.56
2022-08-27T04:02:35.461Z,99310.50
2022-08-27T04:05:37.588Z,99308.94
2022-08-27T04:08:39.654Z,99312.69
2022-08-27T04:11:41.787Z,99312.97
2022-08-27T04:14:43.863Z,99313.28
2022-08-27T04:17:46.050Z,99310.16
2022-08-27T04:20:49.047Z,99311.09
2022-08-27T04:23:51.126Z,99302.91
2022-08-27T04:26:55.585Z,99303.78
2022-08-27T04:29:58.759Z,99300.00
2022-08-27T04:33:00.946Z,99300.31
2022-08-27T04:36:08.163Z,99299.25
2022-08-27T04:39:10.232Z,99292.16
2022-08-27T04:42:12.323Z,99293.41
2022-08-27T04:45:14.924Z,99283.09
2022-08-27T04:48:17.907Z,99286.25
2022-08-27T04:51:20.893Z,99289.50
2022-08-27T04:54:32.399Z,99287.69
2022-08-27T04:57:37.890Z,99290.06
2022-08-27T05:01:01.954Z,99285.53
2022-08-27T05:04:04.260Z,99290.38
2022-08-27T05:07:08.143Z,99284.84
2022-08-27T05:10:10.254Z,99281.75
2022-08-27T05:13:12.466Z,99293.75
2022-08-27T05:16:21.270Z,99289.97
2022-08-27T05:19:23.395Z,99289.22
2022-08-27T05:22:25.511Z,99284.44
2022-08-27T05:25:27.790Z,99286.16
2022-08-27T05:28:29.886Z,99295.16
2022-08-27T05:31:32.205Z,99291.81
2022-08-27T05:34:34.316Z,99292.25
2022-08-27T05:37:36.805Z,99310.63
2022-08-27T05:40:40.482Z,99298.41
2022-08-27T05:43:46.494Z,99292.53
2022-08-27T05:46:51.370Z,99299.84
2022-08-27T05:49:54.454Z,99292.31
2022-08-27T05:52:56.515Z,99298.31
2022-08-27T05:55:58.627Z,99308.41
2022-08-27T05:59:19.403Z,99306.72
2022-08-27T06:02:21.763Z,99319.78
2022-08-27T06:05:24.030Z,99311.19
2022-08-27T06:08:26.299Z,99302.34
2022-08-27T06:11:28.635Z,99315.13
2022-08-27T06:14:30.718Z,99310.91
2022-08-27T06:17:32.798Z,99314.47
2022-08-27T06:20:35.202Z,99319.28
2022-08-27T06:23:37.405Z,99324.63
2022-08-27T06:26:40.812Z,99315.84
2022-08-27T06:29:43.164Z,99319.88
2022-08-27T06:32:45.487Z,99323.81
2022-08-27T06:35:47.576Z,99326.03
2022-08-27T06:38:49.882Z,99325.72
2022-08-27T06:41:52.085Z,99341.50
2022-08-27T06:44:56.494Z,99336.44
2022-08-27T06:47:58.710Z,99343.78
2022-08-27T06:51:00.922Z,99340.41
2022-08-27T06:54:06.504Z,99348.66
2022-08-27T06:57:08.856Z,99353.13
2022-08-27T07:00:12.488Z,99348.28
2022-08-27T07:03:14.711Z,99352.75
2022-08-27T07:06:17.196Z,99356.94
2022-08-27T07:09:20.676Z,99356.66
2022-08-27T07:12:22.756Z,99355.44
2022-08-27T07:15:33.143Z,99359.59
2022-08-27T07:18:38.648Z,99357.13
2022-08-27T07:21:42.678Z,99357.69
2022-08-27T07:24:44.766Z,99363.94
2022-08-27T07:27:50.007Z,99369.31
2022-08-27T07:30:53.094Z,99363.28
2022-08-27T07:33:55.291Z,99375.69
2022-08-27T07:36:57.359Z,99374.88
2022-08-27T07:39:59.449Z,99379.66
2022-08-27T07:43:19.940Z,99376.00
2022-08-27T07:46:25.152Z,99385.28
2022-08-27T07:49:28.567Z,99378.09
2022-08-27T07:52:30.709Z,99377.22
2022-08-27T07:55:32.822Z,99378.19
2022-08-27T07:58:35.534Z,99381.22
2022-08-27T08:01:37.677Z,99384.16
2022-08-27T08:04:39.787Z,99386.94
2022-08-27T08:07:41.917Z,99386.97
2022-08-27T08:10:44.033Z,99387.31
2022-08-27T08:13:46.281Z,99384.31
2022-08-27T08:16:48.498Z,99390.31
2022-08-27T08:20:15.362Z,99384.16
2022-08-27T08:23:13.324Z,99398.53
2022-08-27T08:26:15.916Z,99396.50
2022-08-27T08:29:18.521Z,99401.56
2022-08-27T08:32:21.436Z,99402.66
2022-08-27T08:35:24.468Z,99410.22
2022-08-27T08:38:28.133Z,99404.25
2022-08-27T08:41:48.650Z,99404.94
2022-08-27T08:44:52.920Z,99402.31
2022-08-27T08:48:17.522Z,99399.56
2022-08-27T08:51:31.454Z,99398.69
2022-08-27T08:54:33.598Z,99407.00
2022-08-27T08:58:12.961Z,99408.75
2022-08-27T09:01:19.561Z,99394.66
2022-08-27T09:04:21.673Z,99402.59
2022-08-27T09:07:47.263Z,99403.31
2022-08-27T09:11:21.087Z,99412.66
2022-08-27T09:14:49.892Z,99412.88
2022-08-27T09:17:52.459Z,99415.13
2022-08-27T09:21:29.607Z,99410.09
2022-08-27T09:24:56.096Z,99413.03
2022-08-27T09:28:01.498Z,99415.84
2022-08-27T09:31:09.431Z,99412.25
2022-08-27T09:34:13.072Z,99409.91
2022-08-27T09:37:27.331Z,99409.59
2022-08-27T09:40:44.524Z,99413.22
2022-08-27T09:44:00.797Z,99407.50
2022-08-27T09:47:03.692Z,99409.66
2022-08-27T09:50:08.428Z,99404.69
2022-08-27T09:53:45.427Z,99405.06
2022-08-27T09:56:49.267Z,99409.75
2022-08-27T09:59:53.909Z,99408.97
2022-08-27T10:02:56.039Z,99401.84
2022-08-27T10:05:58.216Z,99397.66
2022-08-27T10:09:14.788Z,99394.91
2022-08-27T10:12:33.684Z,99393.53
2022-08-27T10:15:59.058Z,99397.53
2022-08-27T10:19:16.840Z,99403.25
2022-08-27T10:22:27.762Z,99401.50
2022-08-27T10:26:02.663Z,99392.41
2022-08-27T10:29:39.459Z,99394.28
2022-08-27T10:33:23.403Z,99395.63
2022-08-27T10:37:21.547Z,99392.22
2022-08-27T10:40:35.956Z,99397.84
2022-08-27T10:44:16.919Z,99395.31
2022-08-27T10:47:51.081Z,99391.75
2022-08-27T10:51:08.823Z,99376.22
2022-08-27T10:54:25.371Z,99379.06
2022-08-27T10:57:53.914Z,99390.91
2022-08-27T11:01:01.847Z,99391.75
2022-08-27T11:04:15.107Z,99372.94
2022-08-27T11:07:55.995Z,99371.09
2022-08-27T11:11:35.038Z,99370.81
2022-08-27T11:14:49.018Z,99366.84
2022-08-27T11:18:27.690Z,99368.75
2022-08-27T11:22:14.805Z,99380.44
2022-08-27T11:25:34.082Z,99374.03
2022-08-27T11:28:39.599Z,99377.06
2022-08-27T11:31:50.085Z,99370.75
2022-08-27T11:34:56.010Z,99366.72
2022-08-27T11:38:54.798Z,99367.69
2022-08-27T11:42:02.604Z,99370.16
2022-08-27T11:45:20.454Z,99366.09
2022-08-27T11:48:28.748Z,99364.47
2022-08-27T11:51:37.045Z,99368.72
2022-08-27T11:55:09.151Z,99372.22
2022-08-27T11:58:23.415Z,99369.06
2022-08-27T12:01:29.196Z,99368.94
2022-08-27T12:04:31.271Z,99374.09
2022-08-27T12:07:35.888Z,99369.28
2022-08-27T12:11:11.955Z,99351.16
2022-08-27T12:14:41.466Z,99358.91
2022-08-27T12:18:17.503Z,99353.31
2022-08-27T12:21:29.483Z,99353.22
2022-08-27T12:24:46.933Z,99359.50
2022-08-27T12:28:05.970Z,99363.00
2022-08-27T12:31:08.073Z,99351.38
2022-08-27T12:34:26.117Z,99354.16
2022-08-27T12:37:33.839Z,99353.88
2022-08-27T12:40:54.039Z,99355.47
2022-08-27T12:44:13.306Z,99355.81
2022-08-27T12:47:17.118Z,99356.69
2022-08-27T12:50:28.098Z,99357.13
2022-08-27T12:53:57.206Z,99347.97
2022-08-27T12:57:04.906Z,99351.25
2022-08-27T13:00:19.637Z,99351.28
2022-08-27T13:03:37.776Z,99352.13
2022-08-27T13:06:44.904Z,99361.13
2022-08-27T13:09:47.021Z,99357.66
2022-08-27T13:12:59.591Z,99349.00
2022-08-27T13:16:02.467Z,99345.56
2022-08-27T13:19:06.128Z,99346.69
2022-08-27T13:22:08.206Z,99346.69
2022-08-27T13:25:31.157Z,99350.34
2022-08-27T13:28:34.090Z,99341.56
2022-08-27T13:31:36.340Z,99349.94
2022-08-27T13:34:39.671Z,99331.28
2022-08-27T13:37:48.148Z,99337.69
2022-08-27T13:41:25.358Z,99344.06
2022-08-27T13:44:40.931Z,99331.94
2022-08-27T13:47:47.811Z,99341.88
2022-08-27T13:50:55.320Z,99341.41
2022-08-27T13:54:16.112Z,99338.03
2022-08-27T13:57:30.361Z,99344.38
2022-08-27T14:00:33.660Z,99340.94
2022-08-27T14:03:47.327Z,99342.78
2022-08-27T14:06:49.974Z,99341.03
2022-08-27T14:10:07.531Z,99341.16
2022-08-27T14:13:17.283Z,99348.56
2022-08-27T14:16:28.326Z,99340.31
2022-08-27T14:19:36.694Z,99339.97
2022-08-27T14:22:39.427Z,99335.25
2022-08-27T14:25:41.598Z,99337.69
2022-08-27T14:28:44.423Z,99343.78
2022-08-27T14:31:46.735Z,99351.44
2022-08-27T14:34:48.875Z,99344.78
2022-08-27T14:37:51.029Z,99342.47
2022-08-27T14:40:54.346Z,99345.63
2022-08-27T14:43:56.842Z,99349.00
2022-08-27T14:47:00.165Z,99352.25
2022-08-27T14:50:02.959Z,99346.69
2022-08-27T14:53:05.139Z,99348.66
2022-08-27T14:56:07.306Z,99344.13
2022-08-27T14:59:09.459Z,99342.41
2022-08-27T15:02:13.756Z,99343.81
2022-08-27T15:05:18.215Z,99348.69
2022-08-27T15:08:25.707Z,99351.53
2022-08-27T15:11:32.272Z,99354.66
2022-08-27T15:14:36.050Z,99347.84
2022-08-27T15:17:38.283Z,99349.09
2022-08-27T15:20:41.434Z,99338.41
2022-08-27T15:23:44.590Z,99351.50
2022-08-27T15:26:46.755Z,99350.91
2022-08-27T15:29:48.822Z,99342.22
2022-08-27T15:32:50.962Z,99351.34
2022-08-27T15:35:53.069Z,99353.38
2022-08-27T15:38:56.226Z,99347.44
2022-08-27T15:42:06.967Z,99348.72
2022-08-27T15:45:11.438Z,99351.00
2022-08-27T15:48:13.714Z,99347.38
2022-08-27T15:51:15.954Z,99349.94
2022-08-27T15:54:18.176Z,99345.44
2022-08-27T15:57:20.538Z,99342.69
2022-08-27T16:00:23.552Z,99356.59
2022-08-27T16:03:29.893Z,99344.88
2022-08-27T16:06:38.734Z,99354.22
2022-08-27T16:09:42.128Z,99356.81
2022-08-27T16:12:44.508Z,99351.13
2022-08-27T16:15:46.912Z,99355.44
2022-08-27T16:18:49.031Z,99345.38
2022-08-27T16:21:52.378Z,99353.78
2022-08-27T16:24:54.783Z,99351.06
2022-08-27T16:28:00.955Z,99352.78
2022-08-27T16:31:05.444Z,99356.72
2022-08-27T16:34:19.131Z,99360.09
2022-08-27T16:37:21.340Z,99357.44
2022-08-27T16:40:23.511Z,99363.03
2022-08-27T16:43:26.915Z,99362.72
2022-08-27T16:46:29.168Z,99356.13
2022-08-27T16:49:49.844Z,99353.69
2022-08-27T16:52:51.996Z,99363.72
2022-08-27T16:55:54.139Z,99351.19
2022-08-27T16:58:56.391Z,99351.50
2022-08-27T17:01:58.517Z,99359.72
2022-08-27T17:05:12.381Z,99366.19
2022-08-27T17:08:25.605Z,99360.00
2022-08-27T17:11:30.728Z,99368.31
2022-08-27T17:14:37.764Z,99359.84
2022-08-27T17:17:40.642Z,99357.84
2022-08-27T17:20:43.899Z,99352.66
2022-08-27T17:23:48.742Z,99358.06
2022-08-27T17:26:50.815Z,99360.97
2022-08-27T17:29:52.974Z,99359.13
2022-08-27T17:32:55.053Z,99360.81
2022-08-27T17:35:58.471Z,99360.88
2022-08-27T17:39:02.574Z,99359.16
2022-08-27T17:42:04.988Z,99356.81
2022-08-27T17:45:07.884Z,99361.03
2022-08-27T17:48:12.354Z,99357.91
2022-08-27T17:51:19.665Z,99361.19
2022-08-27T17:54:36.133Z,99364.56
2022-08-27T17:57:40.669Z,99363.09
2022-08-27T18:00:44.949Z,99363.59
2022-08-27T18:03:47.705Z,99370.53
2022-08-27T18:06:50.211Z,99369.44
2022-08-27T18:09:52.410Z,99378.97
2022-08-27T18:12:55.502Z,99384.13
2022-08-27T18:15:57.647Z,99388.53
2022-08-27T18:18:59.790Z,99390.50
2022-08-27T18:22:01.875Z,99389.72
2022-08-27T18:25:05.336Z,99393.38
2022-08-27T18:28:09.718Z,99399.97
2022-08-27T18:31:15.058Z,99394.91
2022-08-27T18:34:20.768Z,99405.44
2022-08-27T18:37:23.685Z,99403.00
2022-08-27T18:40:28.948Z,99400.34
2022-08-27T18:43:35.122Z,99400.69
2022-08-27T18:46:37.948Z,99407.75
2022-08-27T18:49:40.143Z,99407.19
2022-08-27T18:52:43.118Z,99402.41
2022-08-27T18:55:45.366Z,99407.78
2022-08-27T18:58:49.205Z,99418.50
2022-08-27T19:01:52.869Z,99404.81
2022-08-27T19:04:55.194Z,99405.66
2022-08-27T19:07:58.385Z,99411.81
2022-08-27T19:11:01.145Z,99413.97
2022-08-27T19:14:03.248Z,99417.19
2022-08-27T19:17:05.398Z,99423.63
2022-08-27T19:20:08.042Z,99432.75
2022-08-27T19:23:10.150Z,99432.22
2022-08-27T19:26:18.093Z,99438.91
2022-08-27T19:29:20.239Z,99443.47
2022-08-27T19:32:22.498Z,99444.00
2022-08-27T19:35:24.672Z,99446.34
2022-08-27T19:38:27.896Z,99446.31
2022-08-27T19:41:29.970Z,99454.13
2022-08-27T19:44:32.038Z,99457.06
2022-08-27T19:47:34.280Z,99458.19
2022-08-27T19:50:36.414Z,99460.88
2022-08-27T19:53:38.523Z,99462.75
2022-08-27T19:56:40.660Z,99464.31
2022-08-27T19:59:43.239Z,99469.69
2022-08-27T20:02:45.410Z,99467.56
2022-08-27T20:05:49.203Z,99470.25
2022-08-27T20:08:51.287Z,99476.72
2022-08-27T20:11:54.380Z,99473.47
2022-08-27T20:14:56.447Z,99468.28
2022-08-27T20:17:59.702Z,99472.31
2022-08-27T20:21:05.753Z,99481.53
2022-08-27T20:24:09.130Z,99485.03
2022-08-27T20:27:11.219Z,99480.19
2022-08-27T20:30:13.740Z,99481.00
2022-08-27T20:33:16.725Z,99489.56
2022-08-27T20:36:19.014Z,99488.78
2022-08-27T20:39:21.092Z,99481.47
2022-08-27T20:42:23.283Z,99473.06
2022-08-27T20:45:25.587Z,99485.78
2022-08-27T20:48:32.283Z,99490.91
2022-08-27T20:51:51.169Z,99496.56
2022-08-27T20:54:56.947Z,99489.56
2022-08-27T20:58:17.414Z,99490.69
2022-08-27T21:01:19.667Z,99495.25
2022-08-27T21:04:21.775Z,99493.06
2022-08-27T21:07:24.112Z,99487.75
2022-08-27T21:10:26.212Z,99493.16
2022-08-27T21:13:29.053Z,99485.38
2022-08-27T21:16:31.664Z,99492.63
2022-08-27T21:19:34.259Z,99495.59
2022-08-27T21:22:36.531Z,99495.59
2022-08-27T21:25:38.647Z,99500.16
2022-08-27T21:28:42.358Z,99498.25
2022-08-27T21:31:44.627Z,99497.47
2022-08-27T21:34:46.767Z,99500.41
2022-08-27T21:37:49.877Z,99503.63
2022-08-27T21:40:51.962Z,99502.53
2022-08-27T21:43:54.410Z,99497.38
2022-08-27T21:46:57.191Z,99506.75
2022-08-27T21:49:59.335Z,99503.50
2022-08-27T21:53:01.415Z,99507.03
2022-08-27T21:56:03.821Z,99511.78
2022-08-27T21:59:06.352Z,99507.72
2022-08-27T22:02:28.831Z,99511.50
2022-08-27T22:05:30.622Z,99499.94
2022-08-27T22:08:32.891Z,99505.78
2022-08-27T22:11:35.224Z,99512.72
2022-08-27T22:14:37.534Z,99509.97
2022-08-27T22:17:39.631Z,99516.19
2022-08-27T22:20:42.010Z,99514.88
2022-08-27T22:23:45.055Z,99517.28
2022-08-27T22:26:47.311Z,99513.25
2022-08-27T22:29:49.395Z,99519.69
2022-08-27T22:32:51.522Z,99525.88
2022-08-27T22:35:53.608Z,99522.63
2022-08-27T22:38:58.395Z,99530.13
2022-08-27T22:42:05.967Z,99523.31
2022-08-27T22:45:08.833Z,99528.97
2022-08-27T22:48:12.508Z,99523.09
2022-08-27T22:51:14.735Z,99536.41
2022-08-27T22:54:17.762Z,99530.22
2022-08-27T22:57:19.897Z,99535.84
2022-08-27T23:00:34.386Z,99532.59
2022-08-27T23:03:36.563Z,99529.91
2022-08-27T23:06:38.742Z,99536.06
2022-08-27T23:09:40.807Z,99542.72
2022-08-27T23:12:45.090Z,99534.25
2022-08-27T23:15:48.283Z,99531.09
2022-08-27T23:18:50.448Z,99532.50
2022-08-27T23:21:52.820Z,99531.09
2022-08-27T23:25:13.833Z,99536.94
2022-08-27T23:28:16.148Z,99529.19
2022-08-27T23:31:19.037Z,99529.91
2022-08-27T23:34:21.539Z,99540.41
2022-08-27T23:37:24.054Z,99537.25
2022-08-27T23:40:26.353Z,99541.13
2022-08-27T23:43:28.551Z,99534.13
2022-08-27T23:46:31.607Z,99538.00
2022-08-27T23:49:34.089Z,99538.19
2022-08-27T23:52:36.616Z,99531.31
2022-08-27T23:55:40.410Z,99542.81
2022-08-27T23:58:42.499Z,99541.97
